Time;durP1;ratioP1;P1;durP2;ratioP2;P2;SDS_P1;SDS_P2;PMS_P1;PMS_P2;Temp;Humidity;BMP_temperature;BMP_pressure;BME280_temperature;BME280_humidity;BME280_pressure;Samples;Min_cycle;Max_cycle;Signal;HPM_P1;HPM_P2
2022/06/20 00:01:36;;;;;;;6.53;1.80;;;13.70;99.90;;;;;;5058062;28;20047;-75
2022/06/20 00:04:05;;;;;;;4.43;1.58;;;13.70;99.90;;;;;;5045063;28;20043;-75
2022/06/20 00:06:31;;;;;;;8.30;1.92;;;13.70;99.90;;;;;;5064403;28;20039;-75
2022/06/20 00:08:57;;;;;;;5.32;1.70;;;13.70;99.90;;;;;;5058021;28;20064;-75
2022/06/20 00:11:38;;;;;;;8.02;2.00;;;13.60;99.90;;;;;;5047017;28;20780;-76
2022/06/20 00:14:05;;;;;;;5.53;1.77;;;13.60;99.90;;;;;;5063484;28;20047;-75
2022/06/20 00:16:33;;;;;;;9.13;2.97;;;13.50;99.90;;;;;;5069247;28;20133;-75
2022/06/20 00:19:00;;;;;;;9.05;2.28;;;13.50;99.90;;;;;;5077337;28;20044;-76
2022/06/20 00:21:27;;;;;;;9.02;1.65;;;13.40;99.90;;;;;;5023857;28;20040;-75
2022/06/20 00:23:53;;;;;;;7.43;2.40;;;13.40;99.90;;;;;;5041832;28;20047;-75
2022/06/20 00:26:19;;;;;;;10.15;2.63;;;13.40;99.90;;;;;;5046280;28;20155;-75
2022/06/20 00:28:48;;;;;;;8.00;1.85;;;13.30;99.90;;;;;;5047090;28;20117;-75
2022/06/20 00:31:15;;;;;;;7.15;2.33;;;13.30;99.90;;;;;;5039654;28;20040;-75
2022/06/20 00:33:43;;;;;;;10.23;2.45;;;13.20;99.90;;;;;;5045931;28;20090;-75
2022/06/20 00:36:09;;;;;;;8.18;2.58;;;13.20;99.90;;;;;;5081721;28;20712;-76
2022/06/20 00:38:36;;;;;;;5.80;1.95;;;13.20;99.90;;;;;;5027114;28;20122;-77
2022/06/20 00:41:07;;;;;;;6.28;2.40;;;13.20;99.90;;;;;;5062562;28;20051;-75
2022/06/20 00:43:39;;;;;;;6.18;2.72;;;13.20;99.90;;;;;;5079403;28;20044;-75
2022/06/20 00:46:35;;;;;;;6.22;1.85;;;13.20;99.90;;;;;;5043696;28;20087;-75
2022/06/20 00:49:29;;;;;;;10.55;2.33;;;13.30;99.90;;;;;;5074358;28;20460;-75
2022/06/20 00:52:36;;;;;;;8.98;2.40;;;13.20;99.90;;;;;;5047927;28;20189;-75
2022/06/20 00:55:47;;;;;;;8.35;2.20;;;13.20;99.90;;;;;;5064539;28;20106;-75
2022/06/20 00:58:35;;;;;;;9.55;2.30;;;13.20;99.90;;;;;;5064220;28;20051;-75
2022/06/20 01:01:33;;;;;;;9.93;2.58;;;13.20;99.90;;;;;;5075373;28;20051;-75
2022/06/20 01:04:35;;;;;;;9.48;2.20;;;13.20;99.90;;;;;;5076890;28;20086;-75
2022/06/20 01:07:26;;;;;;;7.78;2.92;;;13.20;99.90;;;;;;5035131;28;20044;-75
2022/06/20 01:10:13;;;;;;;10.15;2.90;;;13.30;99.90;;;;;;5073512;28;20533;-75
2022/06/20 01:13:10;;;;;;;5.38;2.20;;;13.30;99.90;;;;;;5065182;28;20051;-75
2022/06/20 01:16:00;;;;;;;7.68;2.47;;;13.30;99.90;;;;;;5093942;28;20051;-75
2022/06/20 01:18:47;;;;;;;9.55;2.78;;;13.30;99.90;;;;;;5063622;28;20048;-75
2022/06/20 01:21:36;;;;;;;8.02;2.70;;;13.30;99.90;;;;;;5064550;28;20093;-75
2022/06/20 01:24:36;;;;;;;9.90;2.42;;;13.20;99.90;;;;;;5034534;28;20036;-75
2022/06/20 01:27:33;;;;;;;9.90;2.85;;;13.30;99.90;;;;;;5074315;28;20120;-75
2022/06/20 01:30:23;;;;;;;6.10;2.00;;;13.30;99.90;;;;;;5062847;28;20044;-75
2022/06/20 01:33:09;;;;;;;8.25;2.60;;;13.30;99.90;;;;;;5079421;28;20534;-75
2022/06/20 01:39:00;;;;;;;10.50;3.30;;;13.30;99.90;;;;;;5076122;28;20118;-75
2022/06/20 01:44:49;;;;;;;10.50;3.05;;;13.30;99.90;;;;;;5072395;28;20083;-74
2022/06/20 01:47:34;;;;;;;9.63;2.97;;;13.30;99.90;;;;;;5060644;28;20040;-75
2022/06/20 01:50:19;;;;;;;7.00;2.45;;;13.20;99.90;;;;;;5059673;28;20054;-76
2022/06/20 01:53:07;;;;;;;10.13;2.70;;;13.20;99.90;;;;;;5050734;28;20135;-75
2022/06/20 01:55:53;;;;;;;7.85;2.47;;;13.20;99.90;;;;;;5074054;28;20048;-75
2022/06/20 01:58:49;;;;;;;10.73;3.05;;;13.10;99.90;;;;;;5061233;28;20126;-75
2022/06/20 02:01:37;;;;;;;11.32;3.10;;;13.10;99.90;;;;;;5059838;28;20114;-76
2022/06/20 02:04:27;;;;;;;8.25;2.88;;;13.00;99.90;;;;;;5073964;28;20416;-75
2022/06/20 02:07:13;;;;;;;7.57;2.38;;;13.00;99.90;;;;;;5078819;28;20457;-75
2022/06/20 02:09:59;;;;;;;11.93;3.40;;;12.90;99.90;;;;;;5059385;28;20476;-75
2022/06/20 02:12:46;;;;;;;7.95;3.00;;;12.90;99.90;;;;;;5049601;28;20047;-75
2022/06/20 02:15:32;;;;;;;9.73;2.92;;;12.80;99.90;;;;;;5043491;28;20696;-76
2022/06/20 02:18:18;;;;;;;10.05;2.97;;;12.70;99.90;;;;;;5072385;28;20582;-75
2022/06/20 02:21:07;;;;;;;9.25;3.08;;;12.70;99.90;;;;;;5058842;28;20468;-75
2022/06/20 02:24:00;;;;;;;7.22;3.33;;;12.60;99.90;;;;;;5064368;28;20032;-75
2022/06/20 02:26:48;;;;;;;9.88;3.53;;;12.60;99.90;;;;;;5051954;28;20051;-75
2022/06/20 02:29:33;;;;;;;6.55;2.92;;;12.50;99.90;;;;;;5049600;28;20207;-75
2022/06/20 02:32:24;;;;;;;10.82;4.38;;;12.50;99.90;;;;;;5064461;28;20052;-75
2022/06/20 02:35:15;;;;;;;10.15;3.13;;;12.40;99.90;;;;;;5053772;28;20044;-75
2022/06/20 02:38:00;;;;;;;10.35;3.63;;;12.30;99.90;;;;;;5073083;28;20048;-75
2022/06/20 02:40:45;;;;;;;8.38;3.38;;;12.30;99.90;;;;;;5061439;28;20104;-75
2022/06/20 02:43:45;;;;;;;12.13;3.35;;;12.20;99.90;;;;;;5066857;28;20572;-75
2022/06/20 02:46:31;;;;;;;10.32;3.92;;;12.10;99.90;;;;;;5085512;28;20047;-74
2022/06/20 02:49:19;;;;;;;8.73;3.17;;;12.10;99.90;;;;;;5070331;28;20049;-75
2022/06/20 02:52:06;;;;;;;10.18;3.75;;;12.00;99.90;;;;;;5078011;28;20585;-75
2022/06/20 02:54:52;;;;;;;9.18;3.80;;;11.90;99.90;;;;;;5069995;28;20730;-75
2022/06/20 02:57:51;;;;;;;7.75;2.92;;;11.80;99.90;;;;;;5061665;28;20386;-75
2022/06/20 03:00:57;;;;;;;12.07;4.00;;;11.70;99.90;;;;;;5050493;28;20126;-76
2022/06/20 03:03:46;;;;;;;7.25;3.20;;;11.70;99.90;;;;;;5074154;28;20047;-76
2022/06/20 03:06:33;;;;;;;8.68;3.30;;;11.70;99.90;;;;;;5063034;28;20616;-75
2022/06/20 03:09:23;;;;;;;8.50;3.53;;;11.60;99.90;;;;;;5051269;28;20051;-76
2022/06/20 03:12:10;;;;;;;11.30;4.22;;;11.50;99.90;;;;;;5079516;28;20050;-76
2022/06/20 03:14:58;;;;;;;10.77;3.50;;;11.50;99.90;;;;;;5065083;28;20044;-76
2022/06/20 03:17:47;;;;;;;8.10;3.20;;;11.50;99.90;;;;;;5066875;28;20690;-76
2022/06/20 03:20:34;;;;;;;8.70;3.33;;;11.40;99.90;;;;;;5047727;28;20150;-75
2022/06/20 03:23:33;;;;;;;9.38;3.70;;;11.30;99.90;;;;;;5082648;28;20079;-74
2022/06/20 03:26:21;;;;;;;11.35;3.50;;;11.20;99.90;;;;;;5048443;28;20093;-77
2022/06/20 03:29:09;;;;;;;11.02;3.60;;;11.10;99.90;;;;;;5066347;28;20043;-76
2022/06/20 03:31:54;;;;;;;8.32;3.80;;;11.00;99.90;;;;;;5063870;28;20048;-76
2022/06/20 03:34:38;;;;;;;7.38;3.75;;;11.10;99.90;;;;;;5065776;28;20062;-75
2022/06/20 03:37:26;;;;;;;9.25;4.20;;;11.10;99.90;;;;;;5069155;28;20128;-75
2022/06/20 03:40:11;;;;;;;9.63;3.72;;;11.10;99.90;;;;;;5061982;28;20153;-75
2022/06/20 03:42:58;;;;;;;10.00;4.07;;;11.10;99.90;;;;;;5057494;28;20051;-77
2022/06/20 03:45:58;;;;;;;10.48;4.47;;;11.10;99.90;;;;;;5074722;28;20089;-75
2022/06/20 03:48:59;;;;;;;8.27;3.92;;;11.10;99.90;;;;;;5077696;28;20048;-75
2022/06/20 03:51:47;;;;;;;8.10;3.95;;;11.10;99.90;;;;;;5073458;28;20514;-75
2022/06/20 03:54:49;;;;;;;10.05;4.32;;;11.10;99.90;;;;;;5058268;28;20058;-75
2022/06/20 03:58:02;;;;;;;9.63;4.03;;;11.10;99.90;;;;;;5077270;28;20418;-75
2022/06/20 04:00:59;;;;;;;9.80;4.43;;;11.10;99.90;;;;;;5078427;28;20044;-75
2022/06/20 04:04:00;;;;;;;9.10;4.53;;;11.10;99.90;;;;;;5038738;28;20047;-75
2022/06/20 04:06:58;;;;;;;11.30;5.30;;;11.10;99.90;;;;;;5065236;28;20106;-75
2022/06/20 04:13:15;;;;;;;9.85;4.38;;;11.20;99.90;;;;;;5078313;28;20082;-75
2022/06/20 04:16:17;;;;;;;12.57;4.47;;;11.30;99.90;;;;;;5071655;28;20491;-75
2022/06/20 04:19:33;;;;;;;12.70;4.75;;;11.40;99.90;;;;;;5063791;28;20059;-74
2022/06/20 04:22:20;;;;;;;10.25;4.32;;;11.50;99.90;;;;;;5077804;28;20055;-76
2022/06/20 04:25:28;;;;;;;9.38;4.50;;;11.50;99.90;;;;;;5064860;28;20044;-75
2022/06/20 04:28:22;;;;;;;11.27;5.10;;;11.60;99.90;;;;;;5077312;28;20392;-76
2022/06/20 04:31:12;;;;;;;8.80;4.63;;;11.60;99.90;;;;;;5078115;28;20090;-76
2022/06/20 04:34:19;;;;;;;11.10;4.65;;;11.70;99.90;;;;;;5078061;28;20736;-75
2022/06/20 04:37:16;;;;;;;8.70;4.10;;;11.80;99.90;;;;;;5050886;28;20048;-76
2022/06/20 04:40:16;;;;;;;10.48;4.97;;;11.90;99.90;;;;;;5056505;28;20051;-75
2022/06/20 04:43:39;;;;;;;8.23;4.72;;;12.00;99.90;;;;;;5061838;28;20043;-79
2022/06/20 04:46:36;;;;;;;;;;;12.20;99.90;;;;;;5044221;28;20055;-79
2022/06/20 04:49:23;;;;;;;10.07;4.22;;;12.40;99.90;;;;;;5077671;28;19916;-80
2022/06/20 04:52:15;;;;;;;8.90;3.83;;;12.50;99.90;;;;;;5051777;28;20082;-79
2022/06/20 04:55:00;;;;;;;11.38;4.30;;;12.60;99.90;;;;;;5051602;28;20058;-79
2022/06/20 04:57:49;;;;;;;10.05;3.80;;;12.70;99.90;;;;;;5051973;28;20046;-79
2022/06/20 05:00:43;;;;;;;9.68;3.35;;;12.80;99.90;;;;;;5063279;28;20309;-79
2022/06/20 05:03:31;;;;;;;6.90;3.80;;;12.90;99.90;;;;;;5066952;28;20048;-81
2022/06/20 05:06:25;;;;;;;10.70;4.05;;;12.90;99.90;;;;;;5052156;28;20753;-80
2022/06/20 05:09:19;;;;;;;9.85;3.70;;;13.10;99.90;;;;;;5063064;28;20044;-80
2022/06/20 05:12:30;;;;;;;8.70;3.33;;;13.50;99.90;;;;;;5047693;28;20766;-79
2022/06/20 05:15:35;;;;;;;9.88;3.30;;;14.00;99.90;;;;;;5036755;28;20487;-79
2022/06/20 05:18:32;;;;;;;7.32;3.17;;;14.60;99.90;;;;;;5066065;28;20681;-79
2022/06/20 05:21:34;;;;;;;9.00;3.10;;;14.80;99.90;;;;;;5051242;28;20476;-79
2022/06/20 05:24:34;;;;;;;5.85;2.97;;;15.00;99.90;;;;;;5063283;28;20476;-80
2022/06/20 05:27:24;;;;;;;7.03;2.72;;;15.20;99.90;;;;;;5044970;28;20560;-80
2022/06/20 05:30:20;;;;;;;7.85;2.50;;;15.60;99.90;;;;;;5066277;28;20044;-80
2022/06/20 05:33:22;;;;;;;5.75;2.65;;;15.60;99.90;;;;;;5051822;28;20044;-80
2022/06/20 05:36:05;;;;;;;9.23;2.45;;;15.70;99.90;;;;;;5064112;28;20047;-80
2022/06/20 05:38:46;;;;;;;8.98;2.60;;;16.10;99.90;;;;;;5054700;28;20715;-80
2022/06/20 05:41:16;;;;;;;8.63;2.55;;;16.30;99.90;;;;;;5030812;28;20047;-80
2022/06/20 05:43:44;;;;;;;8.02;3.10;;;16.40;99.90;;;;;;5066134;28;20131;-80
2022/06/20 05:46:35;;;;;;;8.23;2.45;;;16.50;99.90;;;;;;5065437;28;20621;-80
2022/06/20 05:49:11;;;;;;;8.35;2.67;;;16.60;99.90;;;;;;5075779;28;20042;-80
2022/06/20 05:51:44;;;;;;;9.63;2.70;;;16.70;99.90;;;;;;5045625;28;20609;-80
2022/06/20 05:54:22;;;;;;;7.45;2.90;;;16.90;99.90;;;;;;5078308;28;20055;-79
2022/06/20 05:56:55;;;;;;;70.90;63.65;;;16.70;99.90;;;;;;5076944;28;20567;-79
2022/06/20 05:59:28;;;;;;;11.55;4.40;;;16.90;99.90;;;;;;5059774;28;20556;-79
2022/06/20 06:02:46;;;;;;;9.98;3.05;;;17.10;99.90;;;;;;5043338;28;20118;-78
2022/06/20 06:05:26;;;;;;;13.75;5.43;;;17.20;99.90;;;;;;5033969;28;20594;-80
2022/06/20 06:08:01;;;;;;;7.28;3.10;;;17.30;99.90;;;;;;5000055;28;20752;-81
2022/06/20 06:10:40;;;;;;;9.95;3.97;;;17.40;99.90;;;;;;5001069;28;20045;-79
2022/06/20 06:13:15;;;;;;;8.13;4.00;;;17.40;99.90;;;;;;5053702;28;20051;-80
2022/06/20 06:19:17;;;;;;;10.55;4.20;;;17.80;99.90;;;;;;5062302;28;20047;-83
2022/06/20 06:21:51;;;;;;;11.10;2.97;;;18.00;99.90;;;;;;5043433;28;20688;-80
2022/06/20 06:24:21;;;;;;;14.45;8.57;;;18.00;99.90;;;;;;5023225;28;20504;-80
2022/06/20 06:26:52;;;;;;;8.40;3.50;;;17.90;99.90;;;;;;5042174;28;20098;-80
2022/06/20 06:29:44;;;;;;;11.25;3.63;;;18.00;99.90;;;;;;5061005;28;20064;-80
2022/06/20 06:32:33;;;;;;;9.85;3.70;;;17.90;99.90;;;;;;5063988;28;20696;-80
2022/06/20 06:35:35;;;;;;;7.85;3.33;;;17.60;99.90;;;;;;5085439;28;20506;-80
2022/06/20 06:38:11;;;;;;;10.93;3.78;;;17.70;99.90;;;;;;5078264;28;20044;-80
2022/06/20 06:40:50;;;;;;;9.27;3.17;;;17.40;99.90;;;;;;5051896;28;20058;-80
2022/06/20 06:43:37;;;;;;;11.00;3.38;;;17.40;99.90;;;;;;5065266;28;20519;-80
2022/06/20 06:46:13;;;;;;;8.90;3.72;;;17.30;99.90;;;;;;5068266;28;20125;-80
2022/06/20 06:49:08;;;;;;;9.07;3.65;;;17.30;99.90;;;;;;5048007;28;20117;-80
2022/06/20 06:51:59;;;;;;;9.90;4.30;;;17.10;99.90;;;;;;5082402;28;20063;-80
2022/06/20 06:54:41;;;;;;;9.98;3.83;;;17.20;99.90;;;;;;5041861;28;20051;-80
2022/06/20 06:57:17;;;;;;;12.98;3.95;;;17.10;99.90;;;;;;5053566;28;20041;-80
2022/06/20 07:00:02;;;;;;;9.32;3.05;;;17.00;99.90;;;;;;5061936;28;20040;-80
2022/06/20 07:02:39;;;;;;;11.45;3.22;;;16.80;99.90;;;;;;5062481;28;20040;-81
2022/06/20 07:05:16;;;;;;;11.85;3.58;;;17.00;99.90;;;;;;5066340;28;20063;-80
2022/06/20 07:07:49;;;;;;;8.68;3.58;;;16.70;99.90;;;;;;5056831;28;20040;-80
2022/06/20 07:10:28;;;;;;;51.28;42.72;;;16.60;99.90;;;;;;5063721;28;20064;-79
2022/06/20 07:13:04;;;;;;;23.20;15.48;;;16.40;99.90;;;;;;5046142;28;20541;-79
2022/06/20 07:15:36;;;;;;;23.75;17.77;;;16.90;99.90;;;;;;5090834;27;20040;-79
2022/06/20 07:18:06;;;;;;;10.48;3.28;;;16.90;99.90;;;;;;5108503;28;20097;-78
2022/06/20 07:20:40;;;;;;;12.05;5.75;;;17.50;99.90;;;;;;5087471;28;20040;-79
2022/06/20 07:23:14;;;;;;;10.77;3.33;;;18.00;99.90;;;;;;5053495;28;20127;-79
2022/06/20 07:25:46;;;;;;;9.73;3.72;;;18.30;99.90;;;;;;5068458;28;20480;-79
2022/06/20 07:28:39;;;;;;;5.72;2.53;;;18.20;99.90;;;;;;5055820;28;20498;-79
2022/06/20 07:31:21;;;;;;;8.68;2.45;;;18.40;99.90;;;;;;5051605;28;20126;-80
2022/06/20 07:34:08;;;;;;;10.75;6.45;;;18.40;99.90;;;;;;5044678;28;20105;-79
2022/06/20 07:36:44;;;;;;;4.85;2.30;;;18.40;99.90;;;;;;5063695;28;20133;-80
2022/06/20 07:39:32;;;;;;;6.82;2.47;;;18.30;99.90;;;;;;5084961;28;20510;-78
2022/06/20 07:42:09;;;;;;;8.07;2.97;;;18.40;99.90;;;;;;5064920;28;20087;-80
2022/06/20 07:45:10;;;;;;;9.02;2.55;;;18.30;99.90;;;;;;5060589;28;20144;-79
2022/06/20 07:48:00;;;;;;;6.90;2.05;;;18.50;99.90;;;;;;5065170;28;20051;-79
2022/06/20 07:50:36;;;;;;;8.02;2.50;;;19.00;99.90;;;;;;5041912;28;20172;-81
2022/06/20 07:53:48;;;;;;;8.60;2.67;;;19.00;99.90;;;;;;5054972;28;20064;-81
2022/06/20 07:56:31;;;;;;;7.18;2.58;;;19.40;99.90;;;;;;5058226;28;20492;-83
2022/06/20 07:59:06;;;;;;;17.95;11.20;;;19.80;99.90;;;;;;5041546;28;20059;-83
2022/06/20 08:02:25;;;;;;;14.30;9.68;;;20.50;99.90;;;;;;5050651;28;20048;-80
2022/06/20 08:05:22;;;;;;;8.93;2.53;;;21.00;99.90;;;;;;5038590;28;20093;-81
2022/06/20 08:08:45;;;;;;;15.10;11.95;;;21.40;97.60;;;;;;5031273;28;20040;-82
2022/06/20 08:21:58;;;;;;;8.55;2.85;;;19.10;99.90;;;;;;4979254;28;20062;-80
2022/06/20 08:26:06;;;;;;;7.57;3.33;;;19.80;99.90;;;;;;4991445;28;20052;-80
2022/06/20 08:30:55;;;;;;;6.95;3.20;;;20.60;99.90;;;;;;4981251;28;20060;-81
2022/06/20 08:34:20;;;;;;;5.95;2.20;;;20.80;98.50;;;;;;4997236;28;20733;-78
2022/06/20 08:37:40;;;;;;;5.53;2.22;;;20.90;99.90;;;;;;4980404;28;20056;-80
2022/06/20 08:41:24;;;;;;;8.32;3.88;;;21.70;93.10;;;;;;4972824;28;20076;-80
2022/06/20 08:43:50;;;;;;;8.35;3.30;;;21.90;82.80;;;;;;5003935;28;20064;-77
2022/06/20 08:47:53;;;;;;;7.97;3.92;;;22.00;94.40;;;;;;4981569;28;20425;-79
2022/06/20 08:51:14;;;;;;;9.43;5.43;;;22.40;77.60;;;;;;4940839;28;20086;-81
2022/06/20 09:03:29;;;;;;;5.85;2.13;;;21.20;90.10;;;;;;4844708;29;20048;-80
2022/06/20 09:11:18;;;;;;;;;;;;;;;;;;;;;
2022/06/20 09:14:49;;;;;;;4.97;1.70;;;22.00;67.20;;;;;;4982461;28;20052;-80
2022/06/20 09:17:57;;;;;;;5.78;3.22;;;22.40;60.50;;;;;;4977115;28;20065;-82
2022/06/20 09:21:23;;;;;;;13.77;9.82;;;22.40;60.50;;;;;;4985012;28;20049;-80
2022/06/20 09:24:56;;;;;;;10.95;9.43;;;23.00;57.20;;;;;;5023108;28;20567;-80
2022/06/20 09:29:57;;;;;;;;;;;;;;;;;;;;;
2022/06/20 09:34:29;;;;;;;6.07;3.58;;;21.40;60.60;;;;;;4938970;28;20106;-79
2022/06/20 09:43:51;;;;;;;3.63;1.30;;;21.00;92.10;;;;;;4848492;28;20055;-79
2022/06/20 09:47:25;;;;;;;6.60;1.55;;;22.20;72.50;;;;;;4853151;29;20128;-79
2022/06/20 10:00:56;;;;;;;4.20;1.67;;;22.50;68.30;;;;;;4787951;29;20061;-79
2022/06/20 10:04:06;;;;;;;5.38;1.55;;;21.60;74.50;;;;;;4835510;28;20533;-80
2022/06/20 10:06:47;;;;;;;9.90;4.32;;;21.30;81.00;;;;;;4936573;28;20065;-81
2022/06/20 10:10:17;;;;;;;4.55;1.58;;;21.10;91.30;;;;;;4961129;28;20748;-79
2022/06/20 10:13:10;;;;;;;6.57;4.15;;;21.50;86.50;;;;;;4953899;28;20510;-79
2022/06/20 10:16:21;;;;;;;6.57;2.40;;;21.70;79.50;;;;;;4955308;28;20058;-80
2022/06/20 10:19:11;;;;;;;3.63;1.70;;;22.00;67.90;;;;;;4905068;28;20059;-79
2022/06/20 10:22:48;;;;;;;4.50;1.63;;;22.70;67.80;;;;;;4919918;28;20302;-80
2022/06/20 10:26:12;;;;;;;5.18;1.60;;;23.20;71.60;;;;;;4918655;28;20061;-80
2022/06/20 10:29:29;;;;;;;5.40;1.70;;;23.50;59.50;;;;;;4990086;28;20051;-80
2022/06/20 10:32:19;;;;;;;5.18;1.42;;;23.80;55.30;;;;;;5041778;28;20487;-80
2022/06/20 10:39:50;;;;;;;10.82;5.43;;;23.80;53.40;;;;;;5011685;28;20047;-80
2022/06/20 10:43:22;;;;;;;5.53;1.65;;;23.00;56.80;;;;;;5011686;28;20093;-79
2022/06/20 10:46:21;;;;;;;4.95;1.65;;;22.20;60.60;;;;;;5025656;28;20139;-79
2022/06/20 10:48:59;;;;;;;8.75;2.40;;;22.40;77.10;;;;;;5008123;28;20040;-78
2022/06/20 10:51:33;;;;;;;9.45;2.22;;;22.70;75.80;;;;;;5013241;28;20097;-77
2022/06/20 10:54:23;;;;;;;8.10;1.60;;;23.30;66.50;;;;;;5025293;28;20691;-78
2022/06/20 10:57:43;;;;;;;5.78;1.70;;;23.50;58.80;;;;;;5027986;28;20995;-83
2022/06/20 11:02:18;;;;;;;5.65;1.63;;;22.60;58.50;;;;;;5041948;28;20745;-80
2022/06/20 11:06:10;;;;;;;5.60;1.40;;;22.00;67.40;;;;;;4936133;28;20130;-80
2022/06/20 11:49:11;;;;;;;8.13;4.15;;;23.90;55.20;;;;;;4962469;28;20552;-82
2022/06/20 11:52:11;;;;;;;8.93;5.50;;;24.00;47.70;;;;;;4975222;28;20057;-82
2022/06/20 11:55:41;;;;;;;6.28;2.50;;;23.80;49.50;;;;;;5012671;28;20052;-81
2022/06/20 12:09:29;;;;;;;5.15;1.25;;;24.50;48.80;;;;;;4952978;28;20058;-81
2022/06/20 12:13:42;;;;;;;;;;;;;;;;;;;;;
2022/06/20 12:16:48;;;;;;;6.53;2.42;;;23.60;52.50;;;;;;4849337;29;20422;-81
2022/06/20 12:24:58;;;;;;;7.38;3.13;;;23.80;53.10;;;;;;4982042;28;20690;-81
2022/06/20 12:27:30;;;;;;;7.15;3.47;;;23.50;53.20;;;;;;4947755;28;20795;-82
2022/06/20 12:30:12;;;;;;;3.75;1.55;;;23.50;53.00;;;;;;4970337;28;20796;-81
2022/06/20 12:32:42;;;;;;;4.60;1.55;;;23.60;52.20;;;;;;4980629;28;20393;-81
2022/06/20 12:35:41;;;;;;;4.43;1.27;;;23.90;53.10;;;;;;5009130;28;20056;-81
2022/06/20 12:38:39;;;;;;;3.60;1.48;;;24.40;50.90;;;;;;5023980;28;20049;-81
2022/06/20 12:41:15;;;;;;;4.22;2.25;;;24.40;50.20;;;;;;5010759;28;20045;-81
2022/06/20 12:44:22;;;;;;;4.55;2.72;;;24.20;49.80;;;;;;5020506;28;20044;-81
2022/06/20 12:47:11;;;;;;;4.72;1.77;;;23.20;51.70;;;;;;5018341;28;20049;-81
2022/06/20 12:50:09;;;;;;;4.60;1.75;;;23.00;53.00;;;;;;5025367;28;20041;-80
2022/06/20 12:53:17;;;;;;;6.05;2.05;;;22.10;55.90;;;;;;5039498;28;20165;-80
2022/06/20 12:56:28;;;;;;;3.58;1.52;;;21.60;65.10;;;;;;5003876;28;20049;-81
2022/06/20 12:58:55;;;;;;;4.15;1.52;;;21.60;78.40;;;;;;4988296;28;20056;-81
2022/06/20 13:01:28;;;;;;;7.32;1.70;;;21.70;71.20;;;;;;5031839;28;20070;-77
2022/06/20 13:04:30;;;;;;;11.45;7.38;;;22.80;66.80;;;;;;5016160;28;20571;-80
2022/06/20 13:07:27;;;;;;;14.52;7.15;;;24.20;58.30;;;;;;4950551;28;20050;-80
2022/06/20 13:10:19;;;;;;;8.60;3.55;;;24.50;54.00;;;;;;5018518;28;20045;-80
2022/06/20 13:13:18;;;;;;;3.13;1.85;;;24.50;53.50;;;;;;5008313;28;20052;-80
2022/06/20 13:15:56;;;;;;;4.03;1.60;;;24.80;51.40;;;;;;4983695;28;20052;-80
2022/06/20 13:18:25;;;;;;;13.30;7.88;;;25.60;49.00;;;;;;5012497;28;20500;-80
2022/06/20 13:21:05;;;;;;;3.75;2.05;;;25.50;50.10;;;;;;5002162;28;20056;-80
2022/06/20 13:24:10;;;;;;;7.22;1.73;;;24.20;50.90;;;;;;5035121;28;20169;-81
2022/06/20 13:27:01;;;;;;;7.40;2.97;;;23.90;49.90;;;;;;5028956;28;20070;-81
2022/06/20 13:29:36;;;;;;;7.07;1.55;;;24.20;52.30;;;;;;5045409;28;20040;-81
2022/06/20 13:32:12;;;;;;;6.65;2.55;;;24.40;52.10;;;;;;5047224;28;20088;-81
2022/06/20 13:34:51;;;;;;;5.38;1.70;;;24.10;52.10;;;;;;5029836;28;20566;-81
2022/06/20 13:37:50;;;;;;;4.95;1.52;;;24.10;51.50;;;;;;5051396;28;20419;-81
2022/06/20 13:40:28;;;;;;;3.22;1.20;;;25.00;49.90;;;;;;5044879;28;20066;-81
2022/06/20 13:43:12;;;;;;;4.15;1.45;;;25.80;49.90;;;;;;5041769;28;20040;-81
2022/06/20 13:46:02;;;;;;;5.57;1.67;;;26.10;49.10;;;;;;5029482;28;20044;-79
2022/06/20 13:48:40;;;;;;;8.50;1.95;;;26.20;47.70;;;;;;5045109;28;20574;-78
2022/06/20 13:51:30;;;;;;;6.75;2.67;;;25.00;49.10;;;;;;5061529;28;20044;-79
2022/06/20 13:54:05;;;;;;;4.93;1.50;;;25.20;49.50;;;;;;5035744;28;20075;-79
2022/06/20 13:56:54;;;;;;;5.70;1.40;;;25.40;50.80;;;;;;5027760;28;20047;-80
2022/06/20 13:59:38;;;;;;;3.90;1.40;;;24.80;49.60;;;;;;5023201;28;20108;-80
2022/06/20 14:02:25;;;;;;;11.07;8.82;;;25.40;50.70;;;;;;5075271;28;20530;-80
2022/06/20 14:04:55;;;;;;;4.60;1.80;;;24.70;49.90;;;;;;5045241;28;20082;-81
2022/06/20 14:07:25;;;;;;;5.80;3.22;;;24.20;50.40;;;;;;5010288;28;20067;-79
2022/06/20 14:09:57;;;;;;;3.67;1.58;;;23.70;52.40;;;;;;5043528;28;20048;-80
2022/06/20 14:12:29;;;;;;;8.48;5.53;;;23.50;53.20;;;;;;5014890;28;20075;-80
2022/06/20 14:15:10;;;;;;;9.00;7.15;;;23.00;55.00;;;;;;5062451;28;20051;-80
2022/06/20 14:17:38;;;;;;;5.28;2.08;;;22.30;57.10;;;;;;5043307;28;20084;-79
2022/06/20 14:20:28;;;;;;;5.50;1.75;;;22.50;58.30;;;;;;5034219;28;20754;-80
2022/06/20 14:23:20;;;;;;;4.93;1.58;;;22.40;60.00;;;;;;5021770;28;20101;-80
2022/06/20 14:25:55;;;;;;;6.57;1.90;;;22.30;62.30;;;;;;5048673;28;20159;-79
2022/06/20 14:28:38;;;;;;;3.28;1.40;;;22.10;66.40;;;;;;5065651;28;20040;-78
2022/06/20 14:31:10;;;;;;;12.77;9.27;;;21.40;73.30;;;;;;5044885;28;20051;-80
2022/06/20 14:33:47;;;;;;;8.50;2.03;;;21.60;71.40;;;;;;5065876;28;20816;-81
2022/06/20 14:36:30;;;;;;;11.48;4.47;;;21.20;75.10;;;;;;5009418;28;20045;-80
2022/06/20 14:39:11;;;;;;;6.47;2.17;;;21.30;77.20;;;;;;5008489;28;20048;-80
2022/06/20 14:41:50;;;;;;;5.03;1.50;;;21.00;75.60;;;;;;5064163;28;20045;-79
2022/06/20 14:44:31;;;;;;;5.75;2.60;;;20.80;90.30;;;;;;5072470;28;20049;-80
2022/06/20 14:47:04;;;;;;;5.93;1.95;;;20.90;93.80;;;;;;5063655;28;20048;-80
2022/06/20 14:49:40;;;;;;;7.50;2.97;;;20.90;89.30;;;;;;5041832;28;20056;-80
2022/06/20 14:52:31;;;;;;;7.65;2.88;;;21.30;85.20;;;;;;5029224;28;20130;-80
2022/06/20 14:55:14;;;;;;;5.40;2.50;;;21.30;73.90;;;;;;5048146;28;20118;-81
2022/06/20 14:58:11;;;;;;;6.30;1.95;;;21.40;72.50;;;;;;5060530;28;20051;-80
2022/06/20 15:01:30;;;;;;;5.60;1.83;;;20.90;77.90;;;;;;5038823;28;20056;-80
2022/06/20 15:04:21;;;;;;;3.28;1.60;;;20.60;89.00;;;;;;5041636;28;21403;-80
2022/06/20 15:07:28;;;;;;;4.07;1.83;;;20.70;96.90;;;;;;5058452;28;20036;-82
2022/06/20 15:10:23;;;;;;;4.95;1.52;;;20.80;93.90;;;;;;4996200;28;20830;-80
2022/06/20 15:13:48;;;;;;;4.53;1.52;;;20.50;93.50;;;;;;5036268;28;20078;-76
2022/06/20 15:16:21;;;;;;;26.23;21.25;;;20.40;94.10;;;;;;5033733;28;20101;-80
2022/06/20 15:19:26;;;;;;;7.75;2.40;;;20.70;94.00;;;;;;5032992;28;20095;-80
2022/06/20 15:26:09;;;;;;;11.93;9.30;;;21.50;84.50;;;;;;4998035;28;20745;-79
2022/06/20 15:29:33;;;;;;;7.30;4.63;;;21.50;74.20;;;;;;4985603;28;20590;-78
2022/06/20 15:32:32;;;;;;;8.25;6.38;;;21.10;83.80;;;;;;5031853;28;20051;-79
2022/06/20 15:35:50;;;;;;;9.75;5.10;;;21.50;87.40;;;;;;5026096;28;20047;-81
2022/06/20 15:38:28;;;;;;;5.70;2.75;;;21.40;90.30;;;;;;5019183;28;20159;-81
2022/06/20 15:41:00;;;;;;;4.70;2.40;;;20.80;90.40;;;;;;5061399;28;20073;-80
2022/06/20 15:43:41;;;;;;;5.45;3.28;;;20.70;94.70;;;;;;5018328;28;20040;-80
2022/06/20 15:46:26;;;;;;;6.88;1.90;;;21.10;97.80;;;;;;5031737;28;20048;-80
2022/06/20 15:48:58;;;;;;;4.57;1.75;;;20.80;94.00;;;;;;5045749;28;20048;-80
2022/06/20 15:51:45;;;;;;;5.43;1.45;;;20.70;92.90;;;;;;5029791;28;20047;-80
2022/06/20 15:55:02;;;;;;;4.18;1.75;;;20.40;96.70;;;;;;5044278;28;20560;-81
2022/06/20 15:57:50;;;;;;;26.95;23.73;;;20.50;96.80;;;;;;5018014;28;20415;-79
2022/06/20 16:00:21;;;;;;;38.90;30.50;;;20.50;96.50;;;;;;5063010;28;20040;-79
2022/06/20 16:03:05;;;;;;;28.10;20.95;;;20.60;97.20;;;;;;5011443;28;20037;-78
2022/06/20 16:05:50;;;;;;;5.38;3.13;;;20.60;96.50;;;;;;5061899;28;20499;-81
2022/06/20 16:08:27;;;;;;;8.68;4.10;;;20.60;95.50;;;;;;5046832;28;20123;-80
2022/06/20 16:12:13;;;;;;;8.20;5.03;;;20.70;94.00;;;;;;5011758;28;20046;-81
2022/06/20 16:15:06;;;;;;;5.18;2.60;;;20.80;86.60;;;;;;4967002;28;20033;-82
2022/06/20 16:17:49;;;;;;;4.15;1.67;;;20.90;92.30;;;;;;4952806;28;20041;-81
2022/06/20 16:20:36;;;;;;;4.45;1.92;;;21.00;87.80;;;;;;4989198;28;20136;-81
2022/06/20 16:23:28;;;;;;;4.88;1.75;;;20.80;84.80;;;;;;5044958;28;20538;-81
2022/06/20 16:26:14;;;;;;;8.10;3.10;;;20.90;92.60;;;;;;5018069;28;20040;-81
2022/06/20 16:29:15;;;;;;;6.68;2.47;;;20.80;97.70;;;;;;5037023;28;20090;-81
2022/06/20 16:31:47;;;;;;;6.15;2.60;;;20.40;99.90;;;;;;5030279;28;20856;-79
2022/06/20 16:34:42;;;;;;;4.65;1.90;;;20.20;99.90;;;;;;5026030;28;20044;-80
2022/06/20 16:37:14;;;;;;;5.72;3.28;;;20.00;99.90;;;;;;5031155;28;20040;-79
2022/06/20 16:39:58;;;;;;;10.10;5.07;;;19.90;99.90;;;;;;5047158;28;20058;-81
2022/06/20 16:42:48;;;;;;;6.30;2.65;;;19.70;99.90;;;;;;5045490;28;20043;-81
2022/06/20 16:46:08;;;;;;;9.32;2.50;;;19.70;99.90;;;;;;5028754;28;20412;-81
2022/06/20 16:49:26;;;;;;;7.90;2.28;;;19.70;99.90;;;;;;5053417;28;20052;-80
2022/06/20 16:52:17;;;;;;;6.65;2.08;;;19.80;99.90;;;;;;5029897;28;20044;-81
2022/06/20 16:54:55;;;;;;;6.80;2.30;;;19.90;99.90;;;;;;5036314;28;20036;-75
2022/06/20 16:57:49;;;;;;;6.93;2.33;;;20.10;99.90;;;;;;5032291;28;20714;-75